Bruneau, ID (83604)

9:11 AM MST on February 07, 2016 (GMT -0700)
Mountain Home Air Force Base | | Change Station
CLOSE
Current Station
Airport
Location: Mountain Home,
Elevation: 2995 ft
Nearby Weather Stations

Elev 2995 ft 43.04 °N, 115.87 °W | Updated 13 minutes ago

Clear
Clear
27 °F
Feels Like 27 °F
N
0
Wind Variable Wind from North

Today
High -- | Low -- °F
--% Chance of Precip.
Yesterday
High -- | Low -- °F
Precip. -- in
Pressure 30.68 in
Visibility 5.0 miles
Clouds Mostly Cloudy 5500 ft
Dew Point 27 °F
Humidity 100%
Rainfall 0.00 in
Snow Depth Not available.
7:51 AM 6:03 PM
Waning Crescent, 1% visible
METAR KMUO 071558Z AUTO 00000KT 5SM DZ BR BKN055 M03/M03 A3060 RMK AO2 VIS 1/4 RWY30 SLP388 P0000 T10271027 $
Pressure 30.68 in
Visibility 5.0 miles
Clouds Mostly Cloudy 5500 ft
Dew Point 27 °F
Humidity 100%
Rainfall 0.00 in
Snow Depth Not available.
7:51 AM 6:03 PM
Waning Crescent, 1% visible
METAR KMUO 071558Z AUTO 00000KT 5SM DZ BR BKN055 M03/M03 A3060 RMK AO2 VIS 1/4 RWY30 SLP388 P0000 T10271027 $

10-Day Weather Forecast

Almanac

Astronomy

Feb. 07, 2016 Rise Set
Actual Time
Civil Twilight
Nautical Twilight
Astronomical Twilight
Moon
Length of Visible Light
Length of Day
Tomorrow will be .
, % of the Moon is Illuminated

Today's Extremes

State Highs State Lows

Community

WunderPhotos

Upload Photos

1,891,221 photos uploaded!

WunderBlog® & News

Nearby

Air Quality

  Air Quality AQ Index Pollutant
Not available.

Snow Depth

Station Depth Elevation

Earthquake Activity

City Distance Mag. Time & Date
Minimum magnitude displayed is 2.5.

Coastal Water Temperatures

Place Temperature

Stations

Nearby Weather Stations

Station Location Temp. Windchill Dew Point Humidity Wind Precip. Elev Updated Type
                   

Watches & Warnings

There are currently no watches in effect.